createdAt,value
2018-07-14T00:00:11.495Z,18.72
2018-07-14T00:02:41.306Z,18.70
2018-07-14T00:05:11.051Z,18.57
2018-07-14T00:07:40.692Z,18.59
2018-07-14T00:10:10.230Z,18.44
2018-07-14T00:12:40.460Z,18.55
2018-07-14T00:15:10.276Z,18.58
2018-07-14T00:17:39.793Z,18.49
2018-07-14T00:20:09.300Z,18.49
2018-07-14T00:22:39.004Z,18.46
2018-07-14T00:25:08.709Z,18.47
2018-07-14T00:27:38.473Z,18.42
2018-07-14T00:30:08.023Z,18.39
2018-07-14T00:32:37.369Z,18.39
2018-07-14T00:35:07.089Z,18.32
2018-07-14T00:37:37.039Z,18.27
2018-07-14T00:40:06.566Z,18.34
2018-07-14T00:42:36.389Z,18.28
2018-07-14T00:45:06.211Z,18.33
2018-07-14T00:47:35.661Z,18.46
2018-07-14T00:50:05.950Z,18.33
2018-07-14T00:52:35.241Z,18.32
2018-07-14T00:55:04.970Z,18.27
2018-07-14T00:57:34.465Z,18.38
2018-07-14T01:00:03.826Z,18.40
2018-07-14T01:02:33.336Z,18.44
2018-07-14T01:05:02.987Z,18.38
2018-07-14T01:07:32.428Z,18.30
2018-07-14T01:10:02.518Z,18.20
2018-07-14T01:12:32.405Z,18.28
2018-07-14T01:15:02.158Z,18.38
2018-07-14T01:17:32.033Z,18.17
2018-07-14T01:20:02.045Z,18.22
2018-07-14T01:22:31.993Z,18.27
2018-07-14T01:25:01.829Z,18.15
2018-07-14T01:27:31.877Z,18.24
2018-07-14T01:30:01.756Z,18.22
2018-07-14T01:32:31.433Z,18.19
2018-07-14T01:35:01.178Z,18.15
2018-07-14T01:37:30.986Z,18.08
2018-07-14T01:40:00.443Z,18.06
2018-07-14T01:42:30.402Z,18.13
2018-07-14T01:44:59.795Z,18.21
2018-07-14T01:47:29.160Z,18.18
2018-07-14T01:49:59.022Z,18.22
2018-07-14T01:52:28.471Z,18.08
2018-07-14T01:54:57.758Z,17.96
2018-07-14T01:57:27.889Z,18.03
2018-07-14T01:59:57.328Z,17.99
2018-07-14T02:02:26.952Z,17.88
2018-07-14T02:04:56.885Z,17.84
2018-07-14T02:07:26.441Z,17.84
2018-07-14T02:09:55.935Z,17.93
2018-07-14T02:12:25.705Z,18.10
2018-07-14T02:14:55.200Z,18.06
2018-07-14T02:17:24.691Z,18.01
2018-07-14T02:19:54.463Z,18.08
2018-07-14T02:22:23.849Z,18.19
2018-07-14T02:24:53.266Z,18.07
2018-07-14T02:27:23.059Z,18.05
2018-07-14T02:29:52.378Z,18.17
2018-07-14T02:32:21.992Z,18.13
2018-07-14T02:34:51.749Z,18.06
2018-07-14T02:37:21.406Z,18.13
2018-07-14T02:39:50.922Z,18.05
2018-07-14T02:42:20.757Z,17.93
2018-07-14T02:44:50.395Z,17.96
2018-07-14T02:47:19.865Z,17.97
2018-07-14T02:49:49.800Z,17.99
2018-07-14T02:52:19.334Z,17.93
2018-07-14T02:54:49.103Z,17.98
2018-07-14T02:57:19.078Z,17.13
2018-07-14T02:59:48.953Z,17.81
2018-07-14T03:02:18.376Z,17.79
2018-07-14T03:04:47.915Z,17.86
2018-07-14T03:07:17.356Z,17.97
2018-07-14T03:09:46.789Z,17.96
2018-07-14T03:12:16.421Z,17.94
2018-07-14T03:14:46.348Z,17.94
2018-07-14T03:17:15.657Z,17.95
2018-07-14T03:19:51.764Z,17.88
2018-07-14T03:22:21.453Z,18.02
2018-07-14T03:24:50.953Z,17.89
2018-07-14T03:27:21.920Z,17.73
2018-07-14T03:29:51.640Z,17.71
2018-07-14T03:32:21.163Z,17.76
2018-07-14T03:34:50.772Z,17.84
2018-07-14T03:37:20.328Z,17.83
2018-07-14T03:39:49.808Z,17.98
2018-07-14T03:42:19.548Z,17.95
2018-07-14T03:44:48.982Z,17.97
2018-07-14T03:47:18.339Z,18.09
2018-07-14T03:49:47.849Z,18.08
2018-07-14T03:52:17.383Z,18.12
2018-07-14T03:54:46.753Z,18.17
2018-07-14T03:57:16.645Z,18.24
2018-07-14T03:59:46.495Z,18.30
2018-07-14T04:02:15.884Z,18.24
2018-07-14T04:04:45.864Z,18.06
2018-07-14T04:07:15.874Z,18.24
2018-07-14T04:09:45.582Z,18.30
2018-07-14T04:12:15.242Z,18.33
2018-07-14T04:14:45.167Z,18.34
2018-07-14T04:17:15.068Z,18.33
2018-07-14T04:19:44.885Z,18.36
2018-07-14T04:22:14.638Z,18.41
2018-07-14T04:24:44.249Z,18.38
2018-07-14T04:27:13.876Z,18.44
2018-07-14T04:29:43.567Z,18.39
2018-07-14T04:32:13.139Z,18.19
2018-07-14T04:34:42.840Z,18.21
2018-07-14T04:37:12.390Z,18.34
2018-07-14T04:39:41.729Z,18.21
2018-07-14T04:42:11.394Z,18.23
2018-07-14T04:44:41.079Z,18.25
2018-07-14T04:47:10.603Z,18.36
2018-07-14T04:49:40.281Z,18.29
2018-07-14T04:52:09.929Z,18.19
2018-07-14T04:54:39.339Z,18.26
2018-07-14T04:57:09.112Z,18.15
2018-07-14T04:59:38.703Z,18.20
2018-07-14T05:02:08.248Z,18.33
2018-07-14T05:04:38.280Z,18.45
2018-07-14T05:07:07.880Z,18.23
2018-07-14T05:09:37.498Z,18.07
2018-07-14T05:12:07.327Z,18.01
2018-07-14T05:14:36.704Z,17.95
2018-07-14T05:17:06.709Z,18.10
2018-07-14T05:19:36.458Z,18.25
2018-07-14T05:22:06.036Z,18.34
2018-07-14T05:24:35.526Z,18.29
2018-07-14T05:27:05.208Z,18.35
2018-07-14T05:29:34.526Z,18.20
2018-07-14T05:32:04.317Z,18.29
2018-07-14T05:34:34.027Z,18.29
2018-07-14T05:37:03.430Z,18.38
2018-07-14T05:39:33.196Z,18.48
2018-07-14T05:42:03.008Z,18.65
2018-07-14T05:44:32.721Z,18.69
2018-07-14T05:47:02.260Z,18.55
2018-07-14T05:49:31.770Z,18.40
2018-07-14T05:52:01.580Z,18.55
2018-07-14T05:54:31.083Z,18.59
2018-07-14T05:57:00.780Z,18.72
2018-07-14T05:59:30.611Z,18.71
2018-07-14T06:02:00.064Z,18.68
2018-07-14T06:04:29.642Z,18.83
2018-07-14T06:06:59.229Z,19.00
2018-07-14T06:09:28.723Z,18.99
2018-07-14T06:11:58.476Z,18.95
2018-07-14T06:14:28.119Z,19.02
2018-07-14T06:16:57.621Z,18.91
2018-07-14T06:19:27.426Z,18.89
2018-07-14T06:21:57.713Z,18.80
2018-07-14T06:24:27.251Z,18.83
2018-07-14T06:26:57.313Z,18.89
2018-07-14T06:29:27.361Z,18.85
2018-07-14T06:31:56.993Z,18.93
2018-07-14T06:34:26.883Z,18.96
2018-07-14T06:36:56.647Z,18.81
2018-07-14T06:39:26.155Z,18.81
2018-07-14T06:41:56.206Z,18.95
2018-07-14T06:44:26.321Z,19.00
2018-07-14T06:46:56.200Z,19.02
2018-07-14T06:49:25.722Z,19.08
2018-07-14T06:51:55.365Z,19.16
2018-07-14T06:54:25.026Z,19.19
2018-07-14T06:56:54.465Z,18.89
2018-07-14T06:59:23.979Z,19.09
2018-07-14T07:01:53.744Z,19.17
2018-07-14T07:04:23.054Z,19.25
2018-07-14T07:06:52.607Z,19.10
2018-07-14T07:09:22.420Z,18.92
2018-07-14T07:11:52.271Z,18.75
2018-07-14T07:14:21.949Z,18.98
2018-07-14T07:16:51.537Z,18.94
2018-07-14T07:19:20.855Z,18.60
2018-07-14T07:21:50.738Z,18.87
2018-07-14T07:24:20.442Z,19.06
2018-07-14T07:26:49.874Z,19.18
2018-07-14T07:29:19.480Z,19.17
2018-07-14T07:31:49.368Z,19.29
2018-07-14T07:34:18.862Z,19.23
2018-07-14T07:36:48.559Z,19.19
2018-07-14T07:39:18.492Z,19.51
2018-07-14T07:41:48.849Z,19.33
2018-07-14T07:44:18.581Z,19.36
2018-07-14T07:46:48.214Z,19.34
2018-07-14T07:49:17.644Z,19.41
2018-07-14T07:51:47.289Z,19.44
2018-07-14T07:54:17.158Z,19.49
2018-07-14T07:56:46.975Z,19.59
2018-07-14T07:59:16.513Z,19.68
2018-07-14T08:01:46.206Z,19.86
2018-07-14T08:04:15.836Z,19.73
2018-07-14T08:06:45.474Z,19.82
2018-07-14T08:09:15.063Z,19.84
2018-07-14T08:11:45.167Z,19.95
2018-07-14T08:14:14.989Z,20.06
2018-07-14T08:16:44.433Z,20.33
2018-07-14T08:19:14.041Z,20.51
2018-07-14T08:21:43.658Z,20.30
2018-07-14T08:24:13.024Z,19.90
2018-07-14T08:26:42.675Z,19.96
2018-07-14T08:29:12.972Z,19.90
2018-07-14T08:31:42.450Z,20.19
2018-07-14T08:34:12.439Z,20.38
2018-07-14T08:36:42.303Z,20.09
2018-07-14T08:39:11.848Z,20.29
2018-07-14T08:41:41.714Z,20.26
2018-07-14T08:44:11.205Z,20.28
2018-07-14T08:46:40.651Z,20.25
2018-07-14T08:49:10.436Z,20.33
2018-07-14T08:51:40.316Z,20.10
2018-07-14T08:54:10.121Z,20.14
2018-07-14T08:56:39.955Z,19.73
2018-07-14T08:59:09.471Z,19.86
2018-07-14T09:01:39.141Z,20.08
2018-07-14T09:04:09.086Z,20.21
2018-07-14T09:06:39.026Z,20.34
2018-07-14T09:09:08.761Z,20.51
2018-07-14T09:11:38.579Z,20.46
2018-07-14T09:14:08.529Z,20.47
2018-07-14T09:16:38.600Z,20.33
2018-07-14T09:19:08.409Z,20.29
2018-07-14T09:21:38.133Z,20.38
2018-07-14T09:24:07.908Z,20.36
2018-07-14T09:26:37.564Z,20.47
2018-07-14T09:29:07.015Z,20.24
2018-07-14T09:31:37.211Z,20.46
2018-07-14T09:34:07.507Z,20.70
2018-07-14T09:36:36.940Z,20.86
2018-07-14T09:39:07.757Z,20.98
2018-07-14T09:41:37.221Z,20.64
2018-07-14T09:44:06.939Z,20.80
2018-07-14T09:46:36.887Z,20.83
2018-07-14T09:49:06.795Z,21.00
2018-07-14T09:51:36.269Z,21.07
2018-07-14T09:54:06.087Z,21.01
2018-07-14T09:56:35.689Z,20.84
2018-07-14T09:59:05.304Z,20.87
2018-07-14T10:01:35.102Z,21.04
2018-07-14T10:04:04.724Z,21.13
2018-07-14T10:06:34.361Z,21.06
2018-07-14T10:09:04.671Z,21.04
2018-07-14T10:11:34.382Z,21.10
2018-07-14T10:14:03.999Z,20.90
2018-07-14T10:16:33.878Z,20.78
2018-07-14T10:19:03.727Z,20.92
2018-07-14T10:21:33.532Z,20.95
2018-07-14T10:24:03.582Z,21.12
2018-07-14T10:26:33.414Z,21.26
2018-07-14T10:29:02.886Z,21.36
2018-07-14T10:31:32.602Z,21.38
2018-07-14T10:34:02.559Z,21.10
2018-07-14T10:36:32.092Z,20.83
2018-07-14T10:39:01.846Z,21.02
2018-07-14T10:41:31.653Z,21.25
2018-07-14T10:44:01.092Z,21.14
2018-07-14T10:46:30.912Z,20.74
2018-07-14T10:49:00.853Z,20.17
2018-07-14T10:51:30.670Z,20.57
2018-07-14T10:54:00.558Z,20.85
2018-07-14T10:56:30.397Z,20.93
2018-07-14T10:58:59.999Z,20.60
2018-07-14T11:01:29.554Z,20.75
2018-07-14T11:03:59.546Z,20.90
2018-07-14T11:06:29.426Z,20.48
2018-07-14T11:08:59.345Z,20.72
2018-07-14T11:11:28.857Z,21.02
2018-07-14T11:13:58.487Z,20.98
2018-07-14T11:16:28.408Z,20.97
2018-07-14T11:18:57.931Z,21.10
2018-07-14T11:21:27.862Z,21.22
2018-07-14T11:23:57.890Z,21.31
2018-07-14T11:26:27.196Z,21.51
2018-07-14T11:28:56.625Z,21.03
2018-07-14T11:31:26.369Z,21.30
2018-07-14T11:33:55.764Z,21.33
2018-07-14T11:36:25.263Z,21.27
2018-07-14T11:38:55.006Z,20.98
2018-07-14T11:41:24.651Z,20.18
2018-07-14T11:43:54.630Z,21.05
2018-07-14T11:46:24.402Z,21.18
2018-07-14T11:48:54.030Z,20.97
2018-07-14T11:51:24.242Z,20.96
2018-07-14T11:53:53.936Z,21.13
2018-07-14T11:56:23.875Z,21.15
2018-07-14T11:58:53.704Z,21.15
2018-07-14T12:01:23.934Z,20.99
2018-07-14T12:03:53.928Z,21.26
2018-07-14T12:06:23.551Z,21.38
2018-07-14T12:08:53.555Z,21.03
2018-07-14T12:11:23.794Z,20.90
2018-07-14T12:13:54.085Z,21.00
2018-07-14T12:16:23.832Z,20.86
2018-07-14T12:18:53.912Z,21.05
2018-07-14T12:21:24.101Z,21.13
2018-07-14T12:23:53.971Z,21.18
2018-07-14T12:26:24.094Z,21.36
2018-07-14T12:28:53.798Z,21.14
2018-07-14T12:31:23.889Z,21.28
2018-07-14T12:33:53.940Z,21.40
2018-07-14T12:36:23.903Z,21.55
2018-07-14T12:38:53.446Z,21.57
2018-07-14T12:41:23.764Z,21.21
2018-07-14T12:43:53.327Z,21.03
2018-07-14T12:46:22.856Z,21.16
2018-07-14T12:48:52.616Z,21.20
2018-07-14T12:51:22.260Z,20.66
2018-07-14T12:53:52.060Z,21.25
2018-07-14T12:56:21.976Z,21.77
2018-07-14T12:58:52.041Z,21.90
2018-07-14T13:01:21.716Z,21.34
2018-07-14T13:03:51.482Z,21.29
2018-07-14T13:06:21.085Z,21.25
2018-07-14T13:08:50.919Z,21.37
2018-07-14T13:11:21.111Z,21.41
2018-07-14T13:13:51.023Z,21.32
2018-07-14T13:16:20.733Z,21.14
2018-07-14T13:18:50.377Z,21.35
2018-07-14T13:21:20.137Z,21.56
2018-07-14T13:23:49.676Z,21.30
2018-07-14T13:26:19.475Z,20.33
2018-07-14T13:28:49.279Z,21.00
2018-07-14T13:31:18.851Z,21.29
2018-07-14T13:33:49.001Z,21.23
2018-07-14T13:36:18.740Z,21.18
2018-07-14T13:38:51.735Z,21.12
2018-07-14T13:41:18.395Z,20.73
2018-07-14T13:43:48.455Z,20.95
2018-07-14T13:46:18.050Z,21.14
2018-07-14T13:48:47.509Z,20.97
2018-07-14T13:51:17.113Z,20.78
2018-07-14T13:53:47.017Z,21.13
2018-07-14T13:56:16.566Z,21.03
2018-07-14T13:58:46.477Z,20.79
2018-07-14T14:01:16.579Z,20.50
2018-07-14T14:03:46.341Z,20.22
2018-07-14T14:06:16.130Z,20.32
2018-07-14T14:08:46.070Z,20.45
2018-07-14T14:11:15.881Z,20.63
2018-07-14T14:13:45.445Z,20.50
2018-07-14T14:16:15.080Z,20.01
2018-07-14T14:18:44.940Z,20.45
2018-07-14T14:21:14.910Z,20.72
2018-07-14T14:23:45.080Z,20.50
2018-07-14T14:26:14.904Z,20.54
2018-07-14T14:28:44.404Z,20.53
2018-07-14T14:31:14.362Z,20.69
2018-07-14T14:33:44.290Z,20.80
2018-07-14T14:36:14.429Z,20.76
2018-07-14T14:38:44.197Z,20.75
2018-07-14T14:41:14.349Z,20.73
2018-07-14T14:43:44.184Z,20.39
2018-07-14T14:46:14.189Z,20.31
2018-07-14T14:48:44.718Z,20.00
2018-07-14T14:51:14.879Z,20.41
2018-07-14T14:53:44.794Z,20.52
2018-07-14T14:56:15.369Z,20.21
2018-07-14T14:58:45.625Z,20.08
2018-07-14T15:01:15.712Z,19.58
2018-07-14T15:03:45.809Z,19.96
2018-07-14T15:06:16.056Z,20.35
2018-07-14T15:08:45.891Z,20.43
2018-07-14T15:11:15.423Z,20.53
2018-07-14T15:13:45.790Z,20.54
2018-07-14T15:16:15.710Z,20.46
2018-07-14T15:18:45.876Z,20.27
2018-07-14T15:21:15.946Z,20.47
2018-07-14T15:23:45.651Z,20.36
2018-07-14T15:26:15.396Z,20.28
2018-07-14T15:28:44.810Z,20.41
2018-07-14T15:31:14.617Z,20.51
2018-07-14T15:33:44.482Z,20.43
2018-07-14T15:36:14.031Z,20.41
2018-07-14T15:38:43.957Z,20.55
2018-07-14T15:41:13.722Z,20.53
2018-07-14T15:43:43.662Z,20.60
2018-07-14T15:46:13.738Z,20.41
2018-07-14T15:48:43.478Z,20.51
2018-07-14T15:51:13.174Z,20.28
2018-07-14T15:53:43.553Z,20.36
2018-07-14T15:56:13.030Z,20.34
2018-07-14T15:58:43.047Z,20.17
2018-07-14T16:01:13.249Z,20.32
2018-07-14T16:03:42.987Z,20.48
2018-07-14T16:06:13.276Z,20.34
2018-07-14T16:08:43.591Z,20.27
2018-07-14T16:11:13.472Z,20.36
2018-07-14T16:13:43.144Z,20.40
2018-07-14T16:16:13.527Z,20.32
2018-07-14T16:18:43.299Z,20.29
2018-07-14T16:21:12.877Z,20.14
2018-07-14T16:23:43.033Z,20.35
2018-07-14T16:26:12.505Z,20.32
2018-07-14T16:28:42.762Z,20.15
2018-07-14T16:31:12.524Z,20.26
2018-07-14T16:33:42.091Z,20.41
2018-07-14T16:36:12.103Z,20.33
2018-07-14T16:38:41.963Z,20.38
2018-07-14T16:41:11.930Z,20.34
2018-07-14T16:43:41.614Z,20.43
2018-07-14T16:46:11.398Z,20.29
2018-07-14T16:48:41.299Z,20.30
2018-07-14T16:51:10.747Z,20.36
2018-07-14T16:53:40.590Z,20.28
2018-07-14T16:56:10.875Z,20.04
2018-07-14T16:58:40.779Z,20.08
2018-07-14T17:01:10.386Z,20.10
2018-07-14T17:03:40.086Z,20.24
2018-07-14T17:06:09.637Z,20.35
2018-07-14T17:08:39.246Z,20.47
2018-07-14T17:11:09.100Z,20.55
2018-07-14T17:13:38.624Z,20.59
2018-07-14T17:16:08.483Z,20.43
2018-07-14T17:18:38.653Z,20.40
2018-07-14T17:21:08.325Z,20.41
2018-07-14T17:23:38.016Z,20.34
2018-07-14T17:26:08.082Z,20.19
2018-07-14T17:28:38.097Z,20.14
2018-07-14T17:31:08.262Z,20.10
2018-07-14T17:33:37.800Z,20.16
2018-07-14T17:36:13.893Z,20.16
2018-07-14T17:38:43.816Z,20.09
2018-07-14T17:41:13.262Z,20.19
2018-07-14T17:43:43.345Z,20.08
2018-07-14T17:46:13.152Z,19.12
2018-07-14T17:48:42.658Z,19.89
2018-07-14T17:51:12.193Z,19.93
2018-07-14T17:53:42.026Z,19.97
2018-07-14T17:56:11.894Z,19.86
2018-07-14T17:58:42.095Z,19.82
2018-07-14T18:01:11.895Z,19.97
2018-07-14T18:03:41.772Z,20.04
2018-07-14T18:06:11.837Z,20.09
2018-07-14T18:08:41.680Z,19.90
2018-07-14T18:11:11.203Z,19.83
2018-07-14T18:13:41.418Z,19.89
2018-07-14T18:16:11.079Z,19.90
2018-07-14T18:18:40.811Z,19.93
2018-07-14T18:21:10.628Z,19.80
2018-07-14T18:23:40.298Z,19.76
2018-07-14T18:26:10.112Z,19.76
2018-07-14T18:28:39.827Z,19.75
2018-07-14T18:31:09.643Z,19.73
2018-07-14T18:33:39.089Z,19.80
2018-07-14T18:36:09.005Z,19.85
2018-07-14T18:38:39.070Z,19.73
2018-07-14T18:41:08.629Z,19.72
2018-07-14T18:43:38.805Z,19.58
2018-07-14T18:46:08.364Z,19.51
2018-07-14T18:48:37.805Z,19.65
2018-07-14T18:51:07.881Z,19.56
2018-07-14T18:53:37.541Z,19.57
2018-07-14T18:56:07.316Z,19.63
2018-07-14T18:58:37.145Z,19.64
2018-07-14T19:01:06.873Z,19.64
2018-07-14T19:03:36.271Z,19.64
2018-07-14T19:06:06.334Z,19.67
2018-07-14T19:08:36.053Z,19.74
2018-07-14T19:11:05.461Z,19.83
2018-07-14T19:13:35.167Z,19.86
2018-07-14T19:16:05.034Z,19.85
2018-07-14T19:18:34.666Z,19.92
2018-07-14T19:21:04.406Z,20.00
2018-07-14T19:23:34.339Z,20.02
2018-07-14T19:26:04.306Z,20.00
2018-07-14T19:28:34.103Z,19.93
2018-07-14T19:31:03.816Z,19.89
2018-07-14T19:33:33.746Z,19.93
2018-07-14T19:36:04.241Z,19.89
2018-07-14T19:38:33.924Z,19.69
2018-07-14T19:41:03.816Z,19.56
2018-07-14T19:43:33.531Z,19.49
2018-07-14T19:46:03.244Z,19.48
2018-07-14T19:48:33.053Z,19.53
2018-07-14T19:51:02.836Z,19.49
2018-07-14T19:53:32.704Z,19.47
2018-07-14T19:56:02.880Z,19.38
2018-07-14T19:58:32.558Z,19.34
2018-07-14T20:01:02.304Z,19.17
2018-07-14T20:03:32.077Z,18.87
2018-07-14T20:06:02.123Z,18.99
2018-07-14T20:08:31.905Z,19.06
2018-07-14T20:11:01.653Z,18.93
2018-07-14T20:13:32.966Z,18.94
2018-07-14T20:16:03.081Z,18.90
2018-07-14T20:18:32.789Z,18.83
2018-07-14T20:21:03.207Z,18.77
2018-07-14T20:23:33.152Z,18.82
2018-07-14T20:26:04.029Z,18.75
2018-07-14T20:28:34.203Z,18.65
2018-07-14T20:31:04.260Z,18.61
2018-07-14T20:33:34.635Z,18.57
2018-07-14T20:36:04.443Z,18.48
2018-07-14T20:38:34.786Z,18.44
2018-07-14T20:41:04.779Z,18.52
2018-07-14T20:43:34.302Z,18.49
2018-07-14T20:46:04.251Z,18.43
2018-07-14T20:48:34.370Z,18.39
2018-07-14T20:51:04.163Z,18.36
2018-07-14T20:53:34.358Z,18.35
2018-07-14T20:56:04.620Z,18.36
2018-07-14T20:58:34.713Z,18.33
2018-07-14T21:01:04.316Z,18.27
2018-07-14T21:03:34.589Z,18.16
2018-07-14T21:06:04.402Z,18.22
2018-07-14T21:08:34.382Z,18.23
2018-07-14T21:11:03.975Z,18.28
2018-07-14T21:13:34.212Z,18.30
2018-07-14T21:16:03.864Z,18.23
2018-07-14T21:18:33.563Z,18.17
2018-07-14T21:21:03.395Z,18.11
2018-07-14T21:23:32.923Z,18.08
2018-07-14T21:26:02.574Z,18.12
2018-07-14T21:28:32.008Z,17.45
2018-07-14T21:31:01.746Z,18.13
2018-07-14T21:33:31.432Z,18.06
2018-07-14T21:36:01.075Z,17.99
2018-07-14T21:38:30.811Z,18.08
2018-07-14T21:41:00.848Z,18.01
2018-07-14T21:43:30.606Z,18.05
2018-07-14T21:46:00.373Z,18.13
2018-07-14T21:48:30.275Z,18.10
2018-07-14T21:50:59.688Z,18.11
2018-07-14T21:53:29.437Z,18.08
2018-07-14T21:55:59.171Z,18.06
2018-07-14T21:58:29.006Z,18.09
2018-07-14T22:01:05.465Z,18.16
2018-07-14T22:03:36.335Z,18.19
2018-07-14T22:06:06.588Z,18.19
2018-07-14T22:08:36.532Z,18.20
2018-07-14T22:11:06.579Z,18.31
2018-07-14T22:13:35.983Z,18.35
2018-07-14T22:16:05.983Z,18.37
2018-07-14T22:18:35.390Z,18.33
2018-07-14T22:21:04.942Z,18.31
2018-07-14T22:23:35.080Z,18.31
2018-07-14T22:26:04.537Z,18.28
2018-07-14T22:28:33.990Z,18.30
2018-07-14T22:31:03.917Z,18.30
2018-07-14T22:33:33.457Z,18.28
2018-07-14T22:36:03.119Z,18.21
2018-07-14T22:38:32.820Z,18.22
2018-07-14T22:41:02.619Z,18.35
2018-07-14T22:43:32.132Z,18.30
2018-07-14T22:46:02.033Z,18.22
2018-07-14T22:48:31.508Z,18.25
2018-07-14T22:51:00.930Z,18.28
2018-07-14T22:53:30.620Z,18.28
2018-07-14T22:56:00.235Z,18.26
2018-07-14T22:58:29.736Z,18.26
2018-07-14T23:00:59.581Z,18.29
2018-07-14T23:03:29.259Z,18.29
2018-07-14T23:05:58.734Z,18.40
2018-07-14T23:08:28.414Z,18.51
2018-07-14T23:10:58.524Z,18.58
2018-07-14T23:13:28.055Z,18.65
2018-07-14T23:15:57.765Z,18.61
2018-07-14T23:18:27.193Z,18.57
2018-07-14T23:20:56.654Z,18.42
2018-07-14T23:23:26.519Z,18.46
2018-07-14T23:25:56.004Z,18.46
2018-07-14T23:28:25.523Z,18.50
2018-07-14T23:30:55.446Z,18.49
2018-07-14T23:33:25.425Z,18.44
2018-07-14T23:35:54.874Z,18.37
2018-07-14T23:38:24.950Z,18.44
2018-07-14T23:40:54.595Z,18.50
2018-07-14T23:43:24.099Z,18.50
2018-07-14T23:45:53.969Z,18.46
2018-07-14T23:48:23.484Z,18.42
2018-07-14T23:50:53.005Z,18.41
2018-07-14T23:53:23.005Z,18.43
2018-07-14T23:55:53.014Z,18.45
2018-07-14T23:58:22.786Z,18.35
